sensor_id;sensor_type;location;lat;lon;timestamp;pressure;altitude;pressure_sealevel;temperature;humidity
30338;BME280;17143;51.888;5.408;2023-05-19T00:06:53;102567.38;;;11.32;85.42
30338;BME280;17143;51.888;5.408;2023-05-19T00:21:55;102558.88;;;11.13;85.80
30338;BME280;17143;51.888;5.408;2023-05-19T00:36:57;102541.78;;;10.95;87.34
30338;BME280;17143;51.888;5.408;2023-05-19T00:52:00;102531.69;;;10.78;88.59
30338;BME280;17143;51.888;5.408;2023-05-19T01:07:02;102539.06;;;10.62;90.10
30338;BME280;17143;51.888;5.408;2023-05-19T01:22:30;102541.22;;;10.46;90.73
30338;BME280;17143;51.888;5.408;2023-05-19T01:37:36;102536.31;;;10.28;93.03
30338;BME280;17143;51.888;5.408;2023-05-19T01:52:39;102524.75;;;10.05;94.72
30338;BME280;17143;51.888;5.408;2023-05-19T02:07:43;102524.38;;;9.90;95.84
30338;BME280;17143;51.888;5.408;2023-05-19T02:22:51;102523.66;;;9.71;97.04
30338;BME280;17143;51.888;5.408;2023-05-19T02:37:53;102506.72;;;9.56;98.86
30338;BME280;17143;51.888;5.408;2023-05-19T02:52:55;102489.97;;;9.42;100.00
30338;BME280;17143;51.888;5.408;2023-05-19T03:07:57;102481.78;;;9.28;100.00
30338;BME280;17143;51.888;5.408;2023-05-19T03:23:00;102485.13;;;9.16;100.00
30338;BME280;17143;51.888;5.408;2023-05-19T03:38:02;102485.91;;;9.05;100.00
30338;BME280;17143;51.888;5.408;2023-05-19T03:53:05;102484.09;;;9.04;100.00
30338;BME280;17143;51.888;5.408;2023-05-19T04:08:14;102490.34;;;9.06;100.00
30338;BME280;17143;51.888;5.408;2023-05-19T04:23:16;102483.34;;;9.15;100.00
30338;BME280;17143;51.888;5.408;2023-05-19T04:38:18;102488.28;;;9.33;100.00
30338;BME280;17143;51.888;5.408;2023-05-19T04:53:21;102490.69;;;11.30;100.00
30338;BME280;17143;51.888;5.408;2023-05-19T05:08:24;102501.34;;;12.59;95.82
30338;BME280;17143;51.888;5.408;2023-05-19T05:23:29;102506.66;;;15.02;81.34
30338;BME280;17143;51.888;5.408;2023-05-19T05:38:32;102507.72;;;16.34;73.23
30338;BME280;17143;51.888;5.408;2023-05-19T05:53:38;102500.47;;;16.76;68.92
30338;BME280;17143;51.888;5.408;2023-05-19T06:08:42;102506.00;;;16.80;65.07
30338;BME280;17143;51.888;5.408;2023-05-19T06:23:44;102511.53;;;17.01;64.57
30338;BME280;17143;51.888;5.408;2023-05-19T06:38:47;102502.63;;;16.83;62.11
30338;BME280;17143;51.888;5.408;2023-05-19T06:53:49;102515.44;;;16.77;63.22
30338;BME280;17143;51.888;5.408;2023-05-19T07:08:51;102518.28;;;17.28;62.36
30338;BME280;17143;51.888;5.408;2023-05-19T07:23:53;102513.03;;;16.81;62.92
30338;BME280;17143;51.888;5.408;2023-05-19T07:38:56;102509.56;;;16.97;63.21
30338;BME280;17143;51.888;5.408;2023-05-19T07:53:58;102509.22;;;18.23;60.02
30338;BME280;17143;51.888;5.408;2023-05-19T08:09:00;102500.22;;;19.09;56.27
30338;BME280;17143;51.888;5.408;2023-05-19T08:24:02;102491.25;;;19.63;53.14
30338;BME280;17143;51.888;5.408;2023-05-19T08:39:04;102473.22;;;19.94;51.55
30338;BME280;17143;51.888;5.408;2023-05-19T08:54:13;102461.28;;;20.47;45.88
30338;BME280;17143;51.888;5.408;2023-05-19T09:09:15;102449.59;;;19.78;45.93
30338;BME280;17143;51.888;5.408;2023-05-19T09:24:17;102438.09;;;19.78;45.61
30338;BME280;17143;51.888;5.408;2023-05-19T09:39:20;102440.00;;;20.44;43.76
30338;BME280;17143;51.888;5.408;2023-05-19T09:54:23;102434.94;;;21.42;41.35
30338;BME280;17143;51.888;5.408;2023-05-19T10:09:26;102433.00;;;21.38;41.06
30338;BME280;17143;51.888;5.408;2023-05-19T10:24:29;102414.94;;;21.51;40.03
30338;BME280;17143;51.888;5.408;2023-05-19T10:39:33;102400.69;;;22.26;39.91
30338;BME280;17143;51.888;5.408;2023-05-19T10:54:42;102398.38;;;22.67;36.82
30338;BME280;17143;51.888;5.408;2023-05-19T11:09:48;102395.31;;;22.81;35.72
30338;BME280;17143;51.888;5.408;2023-05-19T11:24:53;102386.50;;;22.84;37.72
30338;BME280;17143;51.888;5.408;2023-05-19T11:39:56;102360.59;;;23.39;36.10
30338;BME280;17143;51.888;5.408;2023-05-19T11:55:00;102352.78;;;23.45;36.42
30338;BME280;17143;51.888;5.408;2023-05-19T12:10:03;102351.59;;;23.69;36.06
30338;BME280;17143;51.888;5.408;2023-05-19T12:25:05;102344.88;;;23.83;36.27
30338;BME280;17143;51.888;5.408;2023-05-19T12:40:10;102338.31;;;23.70;35.29
30338;BME280;17143;51.888;5.408;2023-05-19T12:55:15;102330.97;;;23.58;32.84
30338;BME280;17143;51.888;5.408;2023-05-19T13:10:18;102309.84;;;23.32;34.26
30338;BME280;17143;51.888;5.408;2023-05-19T13:25:20;102296.75;;;23.39;34.69
30338;BME280;17143;51.888;5.408;2023-05-19T13:40:22;102291.31;;;23.02;33.20
30338;BME280;17143;51.888;5.408;2023-05-19T13:55:24;102277.88;;;23.30;33.23
30338;BME280;17143;51.888;5.408;2023-05-19T14:10:26;102263.34;;;23.50;34.26
30338;BME280;17143;51.888;5.408;2023-05-19T14:25:28;102248.66;;;23.68;32.71
30338;BME280;17143;51.888;5.408;2023-05-19T14:40:30;102244.78;;;23.53;34.25
30338;BME280;17143;51.888;5.408;2023-05-19T14:55:32;102241.06;;;23.45;34.61
30338;BME280;17143;51.888;5.408;2023-05-19T15:10:34;102240.34;;;23.18;35.43
30338;BME280;17143;51.888;5.408;2023-05-19T15:25:36;102229.31;;;23.03;36.03
30338;BME280;17143;51.888;5.408;2023-05-19T15:40:40;102220.47;;;23.04;36.06
30338;BME280;17143;51.888;5.408;2023-05-19T15:55:42;102222.28;;;23.05;36.29
30338;BME280;17143;51.888;5.408;2023-05-19T16:10:44;102199.34;;;23.10;35.85
30338;BME280;17143;51.888;5.408;2023-05-19T16:25:46;102186.50;;;22.61;36.17
30338;BME280;17143;51.888;5.408;2023-05-19T16:40:49;102195.91;;;22.49;36.72
30338;BME280;17143;51.888;5.408;2023-05-19T16:55:51;102179.84;;;21.83;38.09
30338;BME280;17143;51.888;5.408;2023-05-19T17:10:53;102186.31;;;21.63;39.01
30338;BME280;17143;51.888;5.408;2023-05-19T17:25:55;102182.13;;;21.43;38.81
30338;BME280;17143;51.888;5.408;2023-05-19T17:40:57;102185.03;;;21.23;38.51
30338;BME280;17143;51.888;5.408;2023-05-19T17:56:01;102197.16;;;21.15;38.76
30338;BME280;17143;51.888;5.408;2023-05-19T18:11:04;102192.56;;;20.85;39.83
30338;BME280;17143;51.888;5.408;2023-05-19T18:26:06;102191.03;;;20.41;40.41
30338;BME280;17143;51.888;5.408;2023-05-19T18:41:08;102200.22;;;20.04;41.64
30338;BME280;17143;51.888;5.408;2023-05-19T18:56:11;102228.75;;;19.67;43.32
30338;BME280;17143;51.888;5.408;2023-05-19T19:11:13;102223.16;;;19.37;44.51
30338;BME280;17143;51.888;5.408;2023-05-19T19:26:15;102227.66;;;18.99;45.91
30338;BME280;17143;51.888;5.408;2023-05-19T19:41:17;102257.06;;;18.66;46.62
30338;BME280;17143;51.888;5.408;2023-05-19T19:56:19;102274.13;;;18.36;47.45
30338;BME280;17143;51.888;5.408;2023-05-19T20:11:21;102288.53;;;18.06;48.89
30338;BME280;17143;51.888;5.408;2023-05-19T20:26:23;102283.16;;;17.85;49.77
30338;BME280;17143;51.888;5.408;2023-05-19T20:41:25;102284.97;;;17.51;51.08
30338;BME280;17143;51.888;5.408;2023-05-19T20:56:27;102295.72;;;17.20;52.50
30338;BME280;17143;51.888;5.408;2023-05-19T21:11:30;102297.91;;;16.95;54.06
30338;BME280;17143;51.888;5.408;2023-05-19T21:26:32;102312.94;;;16.64;55.01
30338;BME280;17143;51.888;5.408;2023-05-19T21:41:34;102314.03;;;16.20;56.25
30338;BME280;17143;51.888;5.408;2023-05-19T21:56:36;102320.50;;;15.95;57.47
30338;BME280;17143;51.888;5.408;2023-05-19T22:11:38;102320.19;;;15.74;59.81
30338;BME280;17143;51.888;5.408;2023-05-19T22:26:40;102319.16;;;15.56;62.98
30338;BME280;17143;51.888;5.408;2023-05-19T22:41:42;102321.66;;;15.40;65.41
30338;BME280;17143;51.888;5.408;2023-05-19T22:56:44;102314.06;;;15.15;66.87
30338;BME280;17143;51.888;5.408;2023-05-19T23:11:46;102313.69;;;14.94;68.48
30338;BME280;17143;51.888;5.408;2023-05-19T23:26:48;102310.59;;;14.72;70.66
30338;BME280;17143;51.888;5.408;2023-05-19T23:41:50;102306.03;;;14.55;72.04
30338;BME280;17143;51.888;5.408;2023-05-19T23:56:52;102304.19;;;14.39;72.94
